Reno (UNR), Valley Road, Nevada Weather observations

Data are for observation ending at time listed.
 Day   Time    Ave.   Ave.  Ave.  Vector   Max.    Total    Solar   Rl      Baro.   Ave.  
  of    of     Air    Rel.  Wind   Wind    Wind   Precip.   Rad.    in      Pres.   Soil  
Year   Day     Temp.  Hum.  Speed  Dir.    Gust                                     Temp. 
2015   (PST)    F      %     mph   deg.    mph      in.     W/m2    W/m2     mb.     F   
-----------------------------------------------------------------------------------------
  56   16:40   61.3    19    8.2    24     13.0     0.00     202     307    856.7   48.3
  56   16:50   61.2    19    7.5    24     13.0     0.00     168     304    856.7   48.3
  56   17:00   60.2    20    7.3    18     11.4     0.00     124     302    856.9   48.4
  56   17:10   57.7    22    7.2    12     11.3     0.00      67     299    856.9   48.5
  56   17:20   57.9    21    7.6    19     12.4     0.00      72     300    857.0   48.5
  56   17:30   57.0    22    6.4    19      9.7     0.00      35     301    857.2   48.5
  56   17:40   55.1    24    6.7    10     10.2     0.00      15     298    857.5   48.5
  56   17:50   53.9    25    6.7     2      9.5     0.00       4     295    857.7   48.5
  56   18:00   53.5    26    6.3   353      9.9     0.00       2     294    857.8   48.5
  56   18:10   52.6    27    5.7   353      8.4     0.00       0     300    857.9   48.5
  56   18:20   52.6    27    5.1   356      8.0     0.00       0     301    858.1   48.5
  56   18:30   51.9    27    4.0     1      7.0     0.00       0     298    858.0   48.4
  56   18:40   51.4    28    2.1    51      4.8     0.00       0     294    858.3   48.4
  56   18:50   51.5    28    1.7   252      4.1     0.00       0     291    858.6   48.3
  56   19:00   51.3    28    2.2   103      4.0     0.00       0     290    858.7   48.3
  56   19:10   49.7    30    2.5    31      4.7     0.00       0     296    858.8   48.2
  56   19:20   49.3    30    1.3   207      2.5     0.00       0     294    858.7   48.1
  56   19:30   48.2    32    2.7   345      4.3     0.00       0     283    859.1   48.1
  56   19:40   47.6    32    1.1   200      2.7     0.00       0     288    859.2   48.0
  56   19:50   46.9    34    0.8   336      2.5     0.00       0     290    859.2   47.9
  56   20:00   46.1    35    1.8   318      4.3     0.00       0     285    859.2   47.8
  56   20:10   45.4    38    3.2   321      4.2     0.00       0     283    859.6   47.7
  56   20:20   45.4    37    0.9   128      2.2     0.00       0     282    859.7   47.6
  56   20:30   44.8    38    0.8   302      2.0     0.00       0     279    859.6   47.5
  56   20:40   44.0    40    2.5   306      3.1     0.00       0     278    859.8   47.4
  56   20:50   42.5    42    2.7   319      3.7     0.00       0     276    860.0   47.3
  56   21:00   42.5    41    0.6   244      1.9     0.00       0     281    860.2   47.2
  56   21:10   42.9    40    0.6    58      2.3     0.00       0     282    860.2   47.1
  56   21:20   42.2    41    2.0   242      4.2     0.00       0     287    860.4   47.0
  56   21:30   44.0    39    3.4   245      4.5     0.00       0     287    860.2   46.9
  56   21:40   42.7    42    0.8    24      2.7     0.00       0     284    860.1   46.8
  56   21:50   40.5    45    0.0    41      1.1     0.00       0     278    860.2   46.6
  56   22:00   40.4    46    0.1   326      1.5     0.00       0     274    860.4   46.5
  56   22:10   40.8    45    1.2   280      5.8     0.00       0     274    860.7   46.4
  56   22:20   41.5    43    0.6   215      2.7     0.00       0     274    860.3   46.3
  56   22:30   42.4    41    1.5   296      3.6     0.00       0     274    860.5   46.2
  56   22:40   43.9    39    3.8   321      5.6     0.00       0     274    860.5   46.1
  56   22:50   44.7    38    3.7   327      4.9     0.00       0     278    860.4   46.0
  56   23:00   43.8    40    3.0   320      5.0     0.00       0     278    860.0   45.9
  56   23:10   42.4    43    4.0   134      6.0     0.00       0     275    859.9   45.8
  56   23:20   42.2    42    2.9   152      6.9     0.00       0     274    859.9   45.7
  56   23:30   41.5    44    2.2    52      3.9     0.00       0     270    860.1   45.6
  56   23:40   40.4    46    2.6   288      4.9     0.00       0     272    860.3   45.5
  56   23:50   39.7    48    1.3   270      4.0     0.00       0     274    860.4   45.4
  57    0:00   39.0    49    0.6   205      2.0     0.00       0     271    860.3   45.3
  57    0:10   39.1    49    1.9   220      4.8     0.00       0     270    860.2   45.2
  57    0:20   39.8    48    2.0   226      4.6     0.00       0     274    860.1   45.1
  57    0:30   39.5    49    2.1   173      4.5     0.00       0     271    860.0   45.0
  57    0:40   38.3    52    2.4   335      4.9     0.00       0     270    859.9   44.9
  57    0:50   37.8    52    0.9    95      3.4     0.00       0     267    860.0   44.8
  57    1:00   37.0    55    1.4   319      3.0     0.00       0     266    860.0   44.7
  57    1:10   36.5    57    2.4   334      3.9     0.00       0     267    860.1   44.7
  57    1:20   35.8    58    0.6   184      2.9     0.00       0     262    860.2   44.6
  57    1:30   35.7    58    1.7   172      4.2     0.00       0     263    860.4   44.5
  57    1:40   36.2    57    1.5   184      3.5     0.00       0     263    860.5   44.4
  57    1:50   36.2    57    2.1   337      4.0     0.00       0     264    860.5   44.3
  57    2:00   35.3    59    2.2   308      4.5     0.00       0     272    860.5   44.2
  57    2:10   34.9    60    1.6   349      5.7     0.00       0     279    860.5   44.1
  57    2:20   40.0    51    9.6   358     14.9     0.00       0     284    860.3   44.0
  57    2:30   42.4    48    8.8     9     12.8     0.00       0     292    860.2   43.9
  57    2:40   41.6    50    8.4    17     14.4     0.00       0     276    860.0   43.8
  57    2:50   41.2    50    7.1    20     11.4     0.00       0     283    859.8   43.8
  57    3:00   41.1    50    5.6     4      9.6     0.00       0     283    859.7   43.7
  57    3:10   41.2    50    4.9     2      8.8     0.00       0     286    859.8   43.6
  57    3:20   41.2    50    6.5    15     10.7     0.00       0     276    860.0   43.5
  57    3:30   40.4    52    7.8     7     10.7     0.00       0     270    859.9   43.5
  57    3:40   40.2    53    6.6    21     11.3     0.00       0     270    859.8   43.4
  57    3:50   40.1    54    7.0    26     10.8     0.00       0     270    859.8   43.4
  57    4:00   40.4    53    7.2    18     10.4     0.00       0     270    859.8   43.3
  57    4:10   41.3    51    7.3   350     11.2     0.00       0     268    859.8   43.3
  57    4:20   41.1    52    8.2   341     10.7     0.00       0     267    859.7   43.2
  57    4:30   40.3    54    6.4   336      9.2     0.00       0     270    859.8   43.2
  57    4:40   40.3    54    8.6   358     12.6     0.00       0     270    859.9   43.1
  57    4:50   40.8    53    7.2     5     10.6     0.00       0     271    860.0   43.1
  57    5:00   39.9    55    3.3    26      6.4     0.00       0     269    860.0   43.1
  57    5:10   39.2    56    0.7    29      3.1     0.00       0     265    860.0   43.0
  57    5:20   38.9    57    1.2   250      2.6     0.00       0     264    860.1   43.0
  57    5:30   39.3    56    2.2   278      5.0     0.00       0     262    860.2   42.9
  57    5:40   39.4    56    4.7   244      9.3     0.00       0     264    860.1   42.9
  57    5:50   38.4    59    4.6   322      8.4     0.00       0     265    860.2   42.8
  57    6:00   38.7    58    4.5   318      6.7     0.00       0     265    860.2   42.8
  57    6:10   38.4    59    3.5   335      5.1     0.00       0     264    860.4   42.7
  57    6:20   37.3    61    1.0   286      2.8     0.00       0     264    860.2   42.7
  57    6:30   36.4    63    0.8   341      3.7     0.00       1     264    860.0   42.6
  57    6:40   35.8    66    4.3   317      6.8     0.00       4     263    860.2   42.6
  57    6:50   36.1    65    1.9   260      4.6     0.00       9     264    860.3   42.5
  57    7:00   37.3    62    1.0   190      3.9     0.00      23     259    860.5   42.5
  57    7:10   39.0    60    3.9   309      9.0     0.00      47     261    860.6   42.4
  57    7:20   39.9    58    7.5   322     11.8     0.00      78     266    860.8   42.3
  57    7:30   40.2    58    6.7   340     10.6     0.00     114     269    860.8   42.3
  57    7:40   41.2    57    9.6   344     13.9     0.00     145     269    860.9   42.2
  57    7:50   41.7    56    9.6   322     14.7     0.00     174     271    860.8   42.1
  57    8:00   42.6    55    7.7   333     12.1     0.00     203     271    860.7   42.1
  57    8:10   43.3    55    6.9   337     11.4     0.00     236     276    860.7   42.0
  57    8:20   43.8    54    6.1   337     10.4     0.00     266     283    860.7   42.0
  57    8:30   44.3    54    8.0   338     13.0     0.00     376     304    860.6   42.0
  57    8:40   45.2    53    8.0   334     13.9     0.00     360     291    860.4   42.0
  57    8:50   44.9    53    8.2   325     12.8     0.00     366     285    860.2   42.0
  57    9:00   45.7    52    6.0   322     10.8     0.00     393     282    860.0   42.0
  57    9:10   46.3    51    4.2   342      9.9     0.00     415     284    859.8   42.0
  57    9:20   47.5    49    4.2   308     10.4     0.00     444     288    859.5   42.1
  57    9:30   46.9    50    7.2   346     14.7     0.00     464     290    859.2   42.1
  57    9:40   47.3    48    5.3   114     10.3     0.00     492     290    858.9   42.2
  57    9:50   48.5    47    3.8    37      7.9     0.00     522     289    858.8   42.3
  57   10:00   49.2    46    3.8    81      9.1     0.00     542     292    858.6   42.4
  57   10:10   49.8    45    6.0    50     13.1     0.00     590     298    858.6   42.6
  57   10:20   49.9    45    4.2    44     10.2     0.00     583     295    858.5   42.7
  57   10:30   50.3    44    6.2    36     12.0     0.00     627     299    858.2   42.9
  57   10:40   50.5    44    7.2    52     13.9     0.00     660     302    858.0   43.1
  57   10:50   49.8    44    6.9    46     13.3     0.00     675     298    857.8   43.3
  57   11:00   50.6    42    6.9    48     12.5     0.00     679     290    857.4   43.5
  57   11:10   50.2    43    6.8    60     12.8     0.00     702     300    857.2   43.7
  57   11:20   51.0    42    5.2    24     12.5     0.00     713     297    857.1   44.0
  57   11:30   51.1    41    6.7   355     11.2     0.00     692     300    857.0   44.2
  57   11:40   50.2    41    5.0     4     11.6     0.00     716     303    856.7   44.5
  57   11:50   50.1    41    4.6    27      9.6     0.00     281     301    856.6   44.7
  57   12:00   51.4    39    5.7    35     10.3     0.00     757     302    856.5   45.0
  57   12:10   51.4    36    5.2   342     12.4     0.00     755     304    856.2   45.2
  57   12:20   50.3    39    4.7   350      9.4     0.00     480     299    855.8   45.5
  57   12:30   51.4    36    2.7   349      7.8     0.00     565     304    855.7   45.7
  57   12:40   52.4    33    3.8   279     11.5     0.00     749     306    855.5   46.0
  57   12:50   52.3    35    5.9   327      9.9     0.00     727     305    855.5   46.2
  57   13:00   51.7    35    4.7   287     10.8     0.00     725     304    855.3   46.5
  57   13:10   52.4    33    3.1   283     10.3     0.00     708     303    855.2   46.7
  57   13:20   53.0    33    6.4   352     13.3     0.00     686     303    855.0   46.9
  57   13:30   53.4    31    3.3    67     10.1     0.00     673     301    854.5   47.1
  57   13:40   53.8    30    5.8   355     12.5     0.00     661     303    854.2   47.3
  57   13:50   52.4    31    2.7   269      7.8     0.00     645     301    853.9   47.4
  57   14:00   54.0    30    4.3   249     12.8     0.00     630     306    853.7   47.6
  57   14:10   53.5    30    7.2   322     15.2     0.00     614     302    853.5   47.8
  57   14:20   52.8    31    6.7   299     12.4     0.00     596     299    853.4   47.9
  57   14:30   53.0    31    6.8   336     11.4     0.00     573     297    853.3   48.1
  57   14:40   53.7    30    6.7   350     12.1     0.00     550     297    853.3   48.2
  57   14:50   53.5    29    4.9   274      9.1     0.00     529     298    853.1   48.3
  57   15:00   54.6    28    5.1     1      9.3     0.00     504     296    852.8   48.5
  57   15:10   55.7    28    5.8   336     12.4     0.00     479     300    852.8   48.6
  57   15:20   53.1    29    6.2   291     11.4     0.00     454     295    852.6   48.7
  57   15:30   53.0    28    5.4   281     10.2     0.00     426     294    852.6   48.8
  57   15:40   53.0    28    6.9   307     11.5     0.00     396     295    852.6   48.9
  57   15:50   53.3    27    7.1   298     13.7     0.00     366     292    852.7   49.0
  57   16:00   53.2    27    7.3   336     12.5     0.00     334     291    852.8   49.1
  57   16:10   53.4    26    5.9   336     10.3     0.00     304     288    852.9   49.2
  57   16:20   55.0    26    6.2   358     11.8     0.00     269     290    852.9   49.3
  57   16:30   54.2    26    7.3    14     13.1     0.00     239     291    852.8   49.4

Return to Reno (UNR), Nevada graphs page.


Western Regional Climate Center,wrcc@dri.edu